createdAt,value
2023-04-02T00:00:21.425Z,8.54
2023-04-02T00:01:20.806Z,8.54
2023-04-02T00:02:22.100Z,8.50
2023-04-02T00:03:20.397Z,8.55
2023-04-02T00:04:20.743Z,8.58
2023-04-02T00:05:21.027Z,8.60
2023-04-02T00:06:20.299Z,8.58
2023-04-02T00:07:20.583Z,8.57
2023-04-02T00:08:20.909Z,8.57
2023-04-02T00:09:20.162Z,8.52
2023-04-02T00:10:20.562Z,8.54
2023-04-02T00:11:20.818Z,8.49
2023-04-02T00:12:21.125Z,8.47
2023-04-02T00:13:20.394Z,8.46
2023-04-02T00:14:20.706Z,8.45
2023-04-02T00:15:20.017Z,8.45
2023-04-02T00:16:20.381Z,8.43
2023-04-02T00:17:20.588Z,8.46
2023-04-02T00:18:20.982Z,8.43
2023-04-02T00:19:20.157Z,8.42
2023-04-02T00:20:20.477Z,8.40
2023-04-02T00:21:20.876Z,8.42
2023-04-02T00:22:20.111Z,8.40
2023-04-02T00:23:20.394Z,8.39
2023-04-02T00:24:20.746Z,8.39
2023-04-02T00:25:20.011Z,8.40
2023-04-02T00:26:20.307Z,8.37
2023-04-02T00:27:20.687Z,8.42
2023-04-02T00:28:19.878Z,8.40
2023-04-02T00:29:20.202Z,8.39
2023-04-02T00:30:20.534Z,8.39
2023-04-02T00:31:19.753Z,8.39
2023-04-02T00:32:20.052Z,8.37
2023-04-02T00:33:20.384Z,8.40
2023-04-02T00:34:20.621Z,8.45
2023-04-02T00:35:19.900Z,8.45
2023-04-02T00:36:20.295Z,8.43
2023-04-02T00:37:20.479Z,8.42
2023-04-02T00:38:19.759Z,8.45
2023-04-02T00:39:20.059Z,8.43
2023-04-02T00:40:20.338Z,8.45
2023-04-02T00:41:19.618Z,8.42
2023-04-02T00:42:20.880Z,8.46
2023-04-02T00:43:20.319Z,8.43
2023-04-02T00:44:20.584Z,8.45
2023-04-02T00:45:19.843Z,8.43
2023-04-02T00:46:20.191Z,8.52
2023-04-02T00:47:20.422Z,8.46
2023-04-02T00:48:19.702Z,8.47
2023-04-02T00:49:20.170Z,8.46
2023-04-02T00:50:20.425Z,8.45
2023-04-02T00:51:19.629Z,8.42
2023-04-02T00:52:19.985Z,8.43
2023-04-02T00:53:20.253Z,8.45
2023-04-02T00:54:19.534Z,8.42
2023-04-02T00:55:19.855Z,8.46
2023-04-02T00:56:20.216Z,8.42
2023-04-02T00:57:19.442Z,8.45
2023-04-02T00:58:19.742Z,8.45
2023-04-02T00:59:20.084Z,8.40
2023-04-02T01:00:19.396Z,8.42
2023-04-02T01:01:19.760Z,8.42
2023-04-02T01:02:20.073Z,8.42
2023-04-02T01:03:20.457Z,8.40
2023-04-02T01:04:19.605Z,8.36
2023-04-02T01:05:19.932Z,8.39
2023-04-02T01:06:20.335Z,8.37
2023-04-02T01:07:19.524Z,8.37
2023-04-02T01:08:19.860Z,8.39
2023-04-02T01:09:20.179Z,8.39
2023-04-02T01:10:19.421Z,8.42
2023-04-02T01:11:19.703Z,8.42
2023-04-02T01:12:20.092Z,8.43
2023-04-02T01:13:20.320Z,8.43
2023-04-02T01:14:19.549Z,8.43
2023-04-02T01:15:19.887Z,8.46
2023-04-02T01:16:19.140Z,8.46
2023-04-02T01:17:19.423Z,8.49
2023-04-02T01:18:19.792Z,8.49
2023-04-02T01:19:20.076Z,8.49
2023-04-02T01:20:19.267Z,8.47
2023-04-02T01:21:19.590Z,8.46
2023-04-02T01:22:19.838Z,8.45
2023-04-02T01:23:19.075Z,8.45
2023-04-02T01:24:19.389Z,8.46
2023-04-02T01:25:19.784Z,8.46
2023-04-02T01:26:19.918Z,8.47
2023-04-02T01:27:19.221Z,8.47
2023-04-02T01:28:19.105Z,8.49
2023-04-02T01:29:19.375Z,8.49
2023-04-02T01:30:19.735Z,8.49
2023-04-02T01:31:19.978Z,8.49
2023-04-02T01:32:19.153Z,8.49
2023-04-02T01:33:19.422Z,8.49
2023-04-02T01:34:20.782Z,8.46
2023-04-02T01:35:19.008Z,8.47
2023-04-02T01:36:19.224Z,8.47
2023-04-02T01:37:19.513Z,8.46
2023-04-02T01:38:19.830Z,8.46
2023-04-02T01:39:19.003Z,8.43
2023-04-02T01:40:19.283Z,8.43
2023-04-02T01:41:19.560Z,8.43
2023-04-02T01:42:19.852Z,8.43
2023-04-02T01:43:19.060Z,8.43
2023-04-02T01:44:19.346Z,8.43
2023-04-02T01:45:19.633Z,8.43
2023-04-02T01:46:19.895Z,8.42
2023-04-02T01:47:19.166Z,8.45
2023-04-02T01:48:19.440Z,8.43
2023-04-02T01:49:20.677Z,8.45
2023-04-02T01:50:19.836Z,8.43
2023-04-02T01:51:19.134Z,8.45
2023-04-02T01:52:19.442Z,8.46
2023-04-02T01:53:19.606Z,8.45
2023-04-02T01:54:19.986Z,8.43
2023-04-02T01:55:19.212Z,8.45
2023-04-02T01:56:19.478Z,8.47
2023-04-02T01:57:18.758Z,8.45
2023-04-02T01:58:19.046Z,8.47
2023-04-02T01:59:19.281Z,8.47
2023-04-02T02:00:19.560Z,8.50
2023-04-02T02:01:20.033Z,8.47
2023-04-02T02:02:19.156Z,8.49
2023-04-02T02:03:19.416Z,8.49
2023-04-02T02:04:18.550Z,8.46
2023-04-02T02:05:18.971Z,8.46
2023-04-02T02:06:19.098Z,8.45
2023-04-02T02:07:20.404Z,8.45
2023-04-02T02:08:18.627Z,8.46
2023-04-02T02:09:18.923Z,8.45
2023-04-02T02:10:19.254Z,8.45
2023-04-02T02:11:19.472Z,8.45
2023-04-02T02:12:19.678Z,8.43
2023-04-02T02:13:19.024Z,8.49
2023-04-02T02:14:20.239Z,8.45
2023-04-02T02:15:18.592Z,8.45
2023-04-02T02:16:18.876Z,8.46
2023-04-02T02:17:19.149Z,8.49
2023-04-02T02:18:18.371Z,8.49
2023-04-02T02:19:18.635Z,8.52
2023-04-02T02:20:18.914Z,8.50
2023-04-02T02:21:19.260Z,8.50
2023-04-02T02:22:18.437Z,8.49
2023-04-02T02:23:18.771Z,8.50
2023-04-02T02:24:19.051Z,8.50
2023-04-02T02:25:18.271Z,8.52
2023-04-02T02:26:18.594Z,8.52
2023-04-02T02:27:19.823Z,8.52
2023-04-02T02:28:19.142Z,8.52
2023-04-02T02:29:18.357Z,8.52
2023-04-02T02:30:18.703Z,8.54
2023-04-02T02:31:19.009Z,8.54
2023-04-02T02:32:18.191Z,8.52
2023-04-02T02:33:18.498Z,8.52
2023-04-02T02:34:22.928Z,8.54
2023-04-02T02:35:19.177Z,8.52
2023-04-02T02:36:18.267Z,8.50
2023-04-02T02:37:19.631Z,8.50
2023-04-02T02:38:19.777Z,8.55
2023-04-02T02:39:19.036Z,8.57
2023-04-02T02:40:18.388Z,8.57
2023-04-02T02:41:19.585Z,8.55
2023-04-02T02:42:18.954Z,8.55
2023-04-02T02:43:18.289Z,8.60
2023-04-02T02:44:18.352Z,8.57
2023-04-02T02:45:18.659Z,8.55
2023-04-02T02:46:18.944Z,8.57
2023-04-02T02:47:19.214Z,8.57
2023-04-02T02:48:18.508Z,8.57
2023-04-02T02:49:18.740Z,8.58
2023-04-02T02:50:17.958Z,8.58
2023-04-02T02:51:18.310Z,8.58
2023-04-02T02:52:18.493Z,8.57
2023-04-02T02:53:18.779Z,8.57
2023-04-02T02:54:18.041Z,8.55
2023-04-02T02:55:18.339Z,8.55
2023-04-02T02:56:19.571Z,8.57
2023-04-02T02:57:19.899Z,8.58
2023-04-02T02:58:18.186Z,8.57
2023-04-02T02:59:18.722Z,8.58
2023-04-02T03:00:19.702Z,8.57
2023-04-02T03:01:19.009Z,8.57
2023-04-02T03:02:18.343Z,8.57
2023-04-02T03:03:18.639Z,8.58
2023-04-02T03:04:17.820Z,8.57
2023-04-02T03:05:18.172Z,8.55
2023-04-02T03:06:18.323Z,8.55
2023-04-02T03:07:18.609Z,8.57
2023-04-02T03:08:17.941Z,8.57
2023-04-02T03:09:18.167Z,8.55
2023-04-02T03:10:18.458Z,8.55
2023-04-02T03:11:17.709Z,8.57
2023-04-02T03:12:17.945Z,8.55
2023-04-02T03:13:19.154Z,8.55
2023-04-02T03:14:19.452Z,8.54
2023-04-02T03:15:17.724Z,8.52
2023-04-02T03:16:18.095Z,8.52
2023-04-02T03:17:19.253Z,8.52
2023-04-02T03:18:19.508Z,8.54
2023-04-02T03:19:17.857Z,8.50
2023-04-02T03:20:18.064Z,8.50
2023-04-02T03:21:18.491Z,8.50
2023-04-02T03:22:17.589Z,8.49
2023-04-02T03:23:20.417Z,8.50
2023-04-02T03:24:19.136Z,8.52
2023-04-02T03:25:19.416Z,8.52
2023-04-02T03:26:17.688Z,8.50
2023-04-02T03:27:18.015Z,8.54
2023-04-02T03:28:19.229Z,8.54
2023-04-02T03:29:18.494Z,8.52
2023-04-02T03:30:18.755Z,8.52
2023-04-02T03:31:18.119Z,8.50
2023-04-02T03:32:18.495Z,8.50
2023-04-02T03:33:17.635Z,8.50
2023-04-02T03:34:17.477Z,8.52
2023-04-02T03:35:17.732Z,8.52
2023-04-02T03:36:18.022Z,8.50
2023-04-02T03:37:19.184Z,8.50
2023-04-02T03:38:17.531Z,8.52
2023-04-02T03:39:18.665Z,8.50
2023-04-02T03:40:18.935Z,8.54
2023-04-02T03:41:19.212Z,8.40
2023-04-02T03:42:17.447Z,8.54
2023-04-02T03:43:17.735Z,8.54
2023-04-02T03:44:17.997Z,8.54
2023-04-02T03:45:18.271Z,8.54
2023-04-02T03:46:18.552Z,8.52
2023-04-02T03:47:18.773Z,8.54
2023-04-02T03:48:18.117Z,8.54
2023-04-02T03:49:17.342Z,8.61
2023-04-02T03:50:17.612Z,8.58
2023-04-02T03:51:17.921Z,8.63
2023-04-02T03:52:18.109Z,8.63
2023-04-02T03:53:17.417Z,8.64
2023-04-02T03:54:17.759Z,8.64
2023-04-02T03:55:17.942Z,8.70
2023-04-02T03:56:19.165Z,8.70
2023-04-02T03:57:17.441Z,8.73
2023-04-02T03:58:18.186Z,8.75
2023-04-02T03:59:17.956Z,8.78
2023-04-02T04:00:18.174Z,8.79
2023-04-02T04:01:18.392Z,8.80
2023-04-02T04:02:17.713Z,8.83
2023-04-02T04:03:17.999Z,8.80
2023-04-02T04:04:18.295Z,8.78
2023-04-02T04:05:18.409Z,8.79
2023-04-02T04:06:20.187Z,8.78
2023-04-02T04:07:17.986Z,8.76
2023-04-02T04:08:18.158Z,8.79
2023-04-02T04:09:17.484Z,8.80
2023-04-02T04:10:18.659Z,8.82
2023-04-02T04:11:17.932Z,8.85
2023-04-02T04:12:17.217Z,8.85
2023-04-02T04:13:18.480Z,8.88
2023-04-02T04:14:17.724Z,8.91
2023-04-02T04:15:17.082Z,8.89
2023-04-02T04:16:18.233Z,8.88
2023-04-02T04:17:17.903Z,8.89
2023-04-02T04:18:18.150Z,8.89
2023-04-02T04:19:17.476Z,8.86
2023-04-02T04:20:17.830Z,8.85
2023-04-02T04:21:17.911Z,8.83
2023-04-02T04:22:17.189Z,8.79
2023-04-02T04:23:18.433Z,8.78
2023-04-02T04:24:16.681Z,8.79
2023-04-02T04:25:16.974Z,8.78
2023-04-02T04:26:17.254Z,8.78
2023-04-02T04:27:18.440Z,8.71
2023-04-02T04:28:17.719Z,8.67
2023-04-02T04:29:17.032Z,8.67
2023-04-02T04:30:18.319Z,8.68
2023-04-02T04:31:17.718Z,8.68
2023-04-02T04:32:17.043Z,8.71
2023-04-02T04:33:17.191Z,8.71
2023-04-02T04:34:18.422Z,8.71
2023-04-02T04:35:17.683Z,8.70
2023-04-02T04:36:17.076Z,8.68
2023-04-02T04:37:17.327Z,8.63
2023-04-02T04:38:16.538Z,8.60
2023-04-02T04:39:16.847Z,8.57
2023-04-02T04:40:18.125Z,8.55
2023-04-02T04:41:18.386Z,8.49
2023-04-02T04:42:17.620Z,8.49
2023-04-02T04:43:17.776Z,8.47
2023-04-02T04:44:17.238Z,8.46
2023-04-02T04:45:16.484Z,8.43
2023-04-02T04:46:17.800Z,8.46
2023-04-02T04:47:17.056Z,8.43
2023-04-02T04:48:17.339Z,8.45
2023-04-02T04:49:16.675Z,8.49
2023-04-02T04:50:16.919Z,8.46
2023-04-02T04:51:17.215Z,8.46
2023-04-02T04:52:17.482Z,8.42
2023-04-02T04:53:17.707Z,8.42
2023-04-02T04:54:17.056Z,8.45
2023-04-02T04:55:16.290Z,8.45
2023-04-02T04:56:19.651Z,8.46
2023-04-02T04:57:17.907Z,8.42
2023-04-02T04:58:17.195Z,8.36
2023-04-02T04:59:16.452Z,8.37
2023-04-02T05:00:16.750Z,8.36
2023-04-02T05:01:17.087Z,8.36
2023-04-02T05:02:16.253Z,8.34
2023-04-02T05:03:16.546Z,8.34
2023-04-02T05:04:16.915Z,8.36
2023-04-02T05:05:17.152Z,8.29
2023-04-02T05:06:16.350Z,8.31
2023-04-02T05:07:17.605Z,8.34
2023-04-02T05:08:17.883Z,8.34
2023-04-02T05:09:16.165Z,8.29
2023-04-02T05:10:16.502Z,8.31
2023-04-02T05:11:16.715Z,8.29
2023-04-02T05:12:16.986Z,8.27
2023-04-02T05:13:16.235Z,8.22
2023-04-02T05:14:16.522Z,8.22
2023-04-02T05:15:16.833Z,8.24
2023-04-02T05:16:17.038Z,8.22
2023-04-02T05:17:17.313Z,8.18
2023-04-02T05:18:16.633Z,8.17
2023-04-02T05:19:16.945Z,8.12
2023-04-02T05:20:16.188Z,8.13
2023-04-02T05:21:17.513Z,8.10
2023-04-02T05:22:16.795Z,8.12
2023-04-02T05:23:16.964Z,8.09
2023-04-02T05:24:17.231Z,8.07
2023-04-02T05:25:16.586Z,8.04
2023-04-02T05:26:16.837Z,8.03
2023-04-02T05:27:16.357Z,8.02
2023-04-02T05:28:17.288Z,7.95
2023-04-02T05:29:17.607Z,7.95
2023-04-02T05:30:17.134Z,7.99
2023-04-02T05:31:17.226Z,7.94
2023-04-02T05:32:17.548Z,7.94
2023-04-02T05:33:17.784Z,7.92
2023-04-02T05:34:17.000Z,7.91
2023-04-02T05:35:17.295Z,7.94
2023-04-02T05:36:16.693Z,7.92
2023-04-02T05:37:16.901Z,7.94
2023-04-02T05:38:17.260Z,7.91
2023-04-02T05:39:17.490Z,7.89
2023-04-02T05:40:16.758Z,7.91
2023-04-02T05:41:17.048Z,7.89
2023-04-02T05:42:16.622Z,7.88
2023-04-02T05:43:16.734Z,7.86
2023-04-02T05:44:15.897Z,7.88
2023-04-02T05:45:17.141Z,7.88
2023-04-02T05:46:17.547Z,7.88
2023-04-02T05:47:16.671Z,7.84
2023-04-02T05:48:16.969Z,7.86
2023-04-02T05:49:16.654Z,7.91
2023-04-02T05:50:16.639Z,7.85
2023-04-02T05:51:16.878Z,7.85
2023-04-02T05:52:17.131Z,7.85
2023-04-02T05:53:17.923Z,7.86
2023-04-02T05:54:16.654Z,7.85
2023-04-02T05:55:16.948Z,7.85
2023-04-02T05:56:16.275Z,7.86
2023-04-02T05:57:15.546Z,7.77
2023-04-02T05:58:34.483Z,7.82
2023-04-02T05:59:18.102Z,7.82
2023-04-02T06:00:17.440Z,7.79
2023-04-02T06:01:15.710Z,7.79
2023-04-02T06:02:16.030Z,7.82
2023-04-02T06:03:16.428Z,7.81
2023-04-02T06:04:16.555Z,7.77
2023-04-02T06:05:16.845Z,7.74
2023-04-02T06:06:17.484Z,7.73
2023-04-02T06:07:15.470Z,7.77
2023-04-02T06:08:15.747Z,7.77
2023-04-02T06:09:19.082Z,7.79
2023-04-02T06:10:16.344Z,7.77
2023-04-02T06:11:16.564Z,7.79
2023-04-02T06:12:16.891Z,7.81
2023-04-02T06:13:17.170Z,7.84
2023-04-02T06:14:17.430Z,7.84
2023-04-02T06:15:15.736Z,7.84
2023-04-02T06:16:17.021Z,7.85
2023-04-02T06:17:15.302Z,7.82
2023-04-02T06:18:16.630Z,7.82
2023-04-02T06:19:16.865Z,7.84
2023-04-02T06:20:16.211Z,7.84
2023-04-02T06:21:15.501Z,7.81
2023-04-02T06:22:16.752Z,7.81
2023-04-02T06:23:17.224Z,7.82
2023-04-02T06:24:15.405Z,7.84
2023-04-02T06:25:15.641Z,7.85
2023-04-02T06:26:15.995Z,7.82
2023-04-02T06:27:15.241Z,7.81
2023-04-02T06:28:15.550Z,7.81
2023-04-02T06:29:15.888Z,7.84
2023-04-02T06:30:15.106Z,7.84
2023-04-02T06:31:15.397Z,7.82
2023-04-02T06:32:16.682Z,7.77
2023-04-02T06:33:16.206Z,7.73
2023-04-02T06:34:15.258Z,7.69
2023-04-02T06:35:16.583Z,7.66
2023-04-02T06:36:15.916Z,7.63
2023-04-02T06:37:16.096Z,7.70
2023-04-02T06:38:15.440Z,7.60
2023-04-02T06:39:15.845Z,7.60
2023-04-02T06:40:15.058Z,7.62
2023-04-02T06:41:16.345Z,7.63
2023-04-02T06:42:15.675Z,7.62
2023-04-02T06:43:14.896Z,7.63
2023-04-02T06:44:15.207Z,7.62
2023-04-02T06:45:15.629Z,7.55
2023-04-02T06:46:15.924Z,7.57
2023-04-02T06:47:15.160Z,7.55
2023-04-02T06:48:16.413Z,7.54
2023-04-02T06:49:16.686Z,7.55
2023-04-02T06:50:15.008Z,7.54
2023-04-02T06:51:16.337Z,7.54
2023-04-02T06:52:16.584Z,7.55
2023-04-02T06:53:14.929Z,7.55
2023-04-02T06:54:15.213Z,7.58
2023-04-02T06:55:15.557Z,7.60
2023-04-02T06:56:15.736Z,7.55
2023-04-02T06:57:15.326Z,7.54
2023-04-02T06:58:20.611Z,7.54
2023-04-02T06:59:14.695Z,7.55
2023-04-02T07:00:16.022Z,7.54
2023-04-02T07:01:15.412Z,7.54
2023-04-02T07:02:15.716Z,7.55
2023-04-02T07:03:15.005Z,7.54
2023-04-02T07:04:15.342Z,7.51
2023-04-02T07:05:16.607Z,7.54
2023-04-02T07:06:14.880Z,7.54
2023-04-02T07:07:15.259Z,7.54
2023-04-02T07:08:15.622Z,7.57
2023-04-02T07:09:14.842Z,7.54
2023-04-02T07:10:16.155Z,7.52
2023-04-02T07:11:17.684Z,7.52
2023-04-02T07:12:15.724Z,7.52
2023-04-02T07:13:15.124Z,7.50
2023-04-02T07:14:15.470Z,7.48
2023-04-02T07:15:14.709Z,7.47
2023-04-02T07:16:15.080Z,7.47
2023-04-02T07:17:15.428Z,7.45
2023-04-02T07:18:14.684Z,7.45
2023-04-02T07:19:15.008Z,7.42
2023-04-02T07:20:15.333Z,7.41
2023-04-02T07:21:14.696Z,7.41
2023-04-02T07:22:14.884Z,7.45
2023-04-02T07:23:17.017Z,7.48
2023-04-02T07:24:16.534Z,7.51
2023-04-02T07:25:17.173Z,7.54
2023-04-02T07:26:15.146Z,7.55
2023-04-02T07:27:14.434Z,7.55
2023-04-02T07:28:14.840Z,7.54
2023-04-02T07:29:20.236Z,7.55
2023-04-02T07:30:14.524Z,7.55
2023-04-02T07:31:14.848Z,7.55
2023-04-02T07:32:16.100Z,7.55
2023-04-02T07:33:14.372Z,7.57
2023-04-02T07:34:14.641Z,7.57
2023-04-02T07:35:15.950Z,7.57
2023-04-02T07:36:14.320Z,7.58
2023-04-02T07:37:16.586Z,7.60
2023-04-02T07:38:15.893Z,7.60
2023-04-02T07:39:15.320Z,7.60
2023-04-02T07:40:15.521Z,7.62
2023-04-02T07:41:14.884Z,7.62
2023-04-02T07:42:15.155Z,7.69
2023-04-02T07:43:15.565Z,7.60
2023-04-02T07:44:15.830Z,7.58
2023-04-02T07:45:15.173Z,7.57
2023-04-02T07:46:15.551Z,7.55
2023-04-02T07:47:15.827Z,7.55
2023-04-02T07:48:14.153Z,7.57
2023-04-02T07:49:15.458Z,7.66
2023-04-02T07:50:15.740Z,7.58
2023-04-02T07:51:14.054Z,7.62
2023-04-02T07:52:15.331Z,7.58
2023-04-02T07:53:15.628Z,7.62
2023-04-02T07:54:14.915Z,7.63
2023-04-02T07:55:14.363Z,7.54
2023-04-02T07:56:15.579Z,7.66
2023-04-02T07:57:16.033Z,7.62
2023-04-02T07:58:15.154Z,7.63
2023-04-02T07:59:14.523Z,7.66
2023-04-02T08:00:14.910Z,7.66
2023-04-02T08:01:14.137Z,7.62
2023-04-02T08:02:15.407Z,7.66
2023-04-02T08:03:14.801Z,7.69
2023-04-02T08:04:15.044Z,7.76
2023-04-02T08:05:14.336Z,7.74
2023-04-02T08:06:14.647Z,7.77
2023-04-02T08:07:15.914Z,7.79
2023-04-02T08:08:15.289Z,7.77
2023-04-02T08:09:14.656Z,7.74
2023-04-02T08:10:13.846Z,7.71
2023-04-02T08:11:14.195Z,7.73
2023-04-02T08:12:14.607Z,7.74
2023-04-02T08:13:14.784Z,7.77
2023-04-02T08:14:16.178Z,7.74
2023-04-02T08:15:15.298Z,7.74
2023-04-02T08:16:15.623Z,7.81
2023-04-02T08:17:13.926Z,7.82
2023-04-02T08:18:16.255Z,7.88
2023-04-02T08:19:14.530Z,7.82
2023-04-02T08:20:14.796Z,7.79
2023-04-02T08:21:16.191Z,7.79
2023-04-02T08:22:15.418Z,7.79
2023-04-02T08:23:13.703Z,7.76
2023-04-02T08:24:14.041Z,7.77
2023-04-02T08:25:14.336Z,7.77
2023-04-02T08:26:14.587Z,7.82
2023-04-02T08:27:14.883Z,7.79
2023-04-02T08:28:16.338Z,7.82
2023-04-02T08:29:13.512Z,7.81
2023-04-02T08:30:14.085Z,7.81
2023-04-02T08:31:15.179Z,7.82
2023-04-02T08:32:14.832Z,7.79
2023-04-02T08:33:13.734Z,7.81
2023-04-02T08:34:15.004Z,7.82
2023-04-02T08:35:15.337Z,7.81
2023-04-02T08:36:13.764Z,7.79
2023-04-02T08:37:13.941Z,7.77
2023-04-02T08:38:14.272Z,7.81
2023-04-02T08:39:14.532Z,7.76
2023-04-02T08:40:15.057Z,7.76
2023-04-02T08:41:15.175Z,7.73
2023-04-02T08:42:14.444Z,7.74
2023-04-02T08:43:13.816Z,7.77
2023-04-02T08:44:15.124Z,7.76
2023-04-02T08:46:15.711Z,7.82
2023-04-02T08:47:15.034Z,7.84
2023-04-02T08:48:14.317Z,7.86
2023-04-02T08:49:15.850Z,7.86
2023-04-02T08:50:19.124Z,7.89
2023-04-02T08:51:14.232Z,7.89
2023-04-02T08:52:14.561Z,7.89
2023-04-02T08:53:14.761Z,7.92
2023-04-02T08:54:15.039Z,7.92
2023-04-02T08:55:13.392Z,7.95
2023-04-02T08:56:14.617Z,7.94
2023-04-02T08:57:22.477Z,7.95
2023-04-02T08:58:15.254Z,7.95
2023-04-02T08:59:14.542Z,7.95
2023-04-02T09:00:14.849Z,7.91
2023-04-02T09:01:14.192Z,7.89
2023-04-02T09:02:13.462Z,7.94
2023-04-02T09:03:13.862Z,7.99
2023-04-02T09:04:14.188Z,8.00
2023-04-02T09:05:13.417Z,7.99
2023-04-02T09:06:16.442Z,7.96
2023-04-02T09:07:15.026Z,8.02
2023-04-02T09:08:13.318Z,7.95
2023-04-02T09:09:18.219Z,7.94
2023-04-02T09:10:14.078Z,7.92
2023-04-02T09:11:14.196Z,7.92
2023-04-02T09:12:14.489Z,7.92
2023-04-02T09:13:14.816Z,7.92
2023-04-02T09:14:13.155Z,7.94
2023-04-02T09:15:13.489Z,7.89
2023-04-02T09:16:14.764Z,7.89
2023-04-02T09:17:18.133Z,7.85
2023-04-02T09:18:17.589Z,7.84
2023-04-02T09:19:14.648Z,7.84
2023-04-02T09:20:29.579Z,7.82
2023-04-02T09:21:13.298Z,7.79
2023-04-02T09:22:13.532Z,7.81
2023-04-02T09:23:34.555Z,7.77
2023-04-02T09:24:13.145Z,7.77
2023-04-02T09:25:18.677Z,7.74
2023-04-02T09:26:13.776Z,7.71
2023-04-02T09:27:13.087Z,7.74
2023-04-02T09:28:13.359Z,7.76
2023-04-02T09:29:13.684Z,7.76
2023-04-02T09:30:12.977Z,7.76
2023-04-02T09:31:13.382Z,7.74
2023-04-02T09:32:13.670Z,7.74
2023-04-02T09:33:13.042Z,7.79
2023-04-02T09:34:13.212Z,7.81
2023-04-02T09:35:25.605Z,7.85
2023-04-02T09:36:16.165Z,7.85
2023-04-02T09:37:13.165Z,7.86
2023-04-02T09:38:13.558Z,7.84
2023-04-02T09:39:12.804Z,7.84
2023-04-02T09:40:13.157Z,7.85
2023-04-02T09:41:13.448Z,7.86
2023-04-02T09:42:12.722Z,7.89
2023-04-02T09:43:13.053Z,7.91
2023-04-02T09:44:13.396Z,7.94
2023-04-02T09:45:14.637Z,7.95
2023-04-02T09:46:12.989Z,7.96
2023-04-02T09:47:15.241Z,7.96
2023-04-02T09:48:13.568Z,7.94
2023-04-02T09:49:12.823Z,7.91
2023-04-02T09:50:13.448Z,7.92
2023-04-02T09:51:13.451Z,7.92
2023-04-02T09:52:12.710Z,7.94
2023-04-02T09:53:14.082Z,7.94
2023-04-02T09:54:14.325Z,7.94
2023-04-02T09:55:14.616Z,8.00
2023-04-02T09:56:12.923Z,8.02
2023-04-02T09:57:13.278Z,8.03
2023-04-02T09:58:12.478Z,8.07
2023-04-02T09:59:12.804Z,8.09
2023-04-02T10:00:41.620Z,8.10
2023-04-02T10:01:14.452Z,8.04
2023-04-02T10:02:12.687Z,7.99
2023-04-02T10:03:13.901Z,7.92
2023-04-02T10:04:13.215Z,7.91
2023-04-02T10:05:12.628Z,7.85
2023-04-02T10:06:12.752Z,7.85
2023-04-02T10:07:13.034Z,7.85
2023-04-02T10:08:12.297Z,7.84
2023-04-02T10:09:12.602Z,7.82
2023-04-02T10:10:13.917Z,7.82
2023-04-02T10:11:13.191Z,7.86
2023-04-02T10:12:12.415Z,7.86
2023-04-02T10:13:12.770Z,7.88
2023-04-02T10:14:13.046Z,7.88
2023-04-02T10:15:12.315Z,7.88
2023-04-02T10:16:12.688Z,7.92
2023-04-02T10:17:13.092Z,7.95
2023-04-02T10:18:12.196Z,7.94
2023-04-02T10:19:12.549Z,7.96
2023-04-02T10:20:12.816Z,7.94
2023-04-02T10:21:14.039Z,8.13
2023-04-02T10:22:12.473Z,8.02
2023-04-02T10:23:12.635Z,8.04
2023-04-02T10:24:12.958Z,8.03
2023-04-02T10:25:12.249Z,8.04
2023-04-02T10:26:12.544Z,8.09
2023-04-02T10:27:13.826Z,8.07
2023-04-02T10:28:12.136Z,8.07
2023-04-02T10:29:13.396Z,8.07
2023-04-02T10:30:12.810Z,8.06
2023-04-02T10:31:11.985Z,8.07
2023-04-02T10:32:13.269Z,8.06
2023-04-02T10:33:12.574Z,8.04
2023-04-02T10:34:12.852Z,8.03
2023-04-02T10:35:12.112Z,8.00
2023-04-02T10:36:12.500Z,8.04
2023-04-02T10:37:12.720Z,7.96
2023-04-02T10:38:11.974Z,7.95
2023-04-02T10:39:12.251Z,7.94
2023-04-02T10:40:12.689Z,7.92
2023-04-02T10:41:12.784Z,7.89
2023-04-02T10:42:12.138Z,7.84
2023-04-02T10:43:12.522Z,7.81
2023-04-02T10:44:19.385Z,7.82
2023-04-02T10:45:12.948Z,7.81
2023-04-02T10:46:12.274Z,7.77
2023-04-02T10:47:12.657Z,7.63
2023-04-02T10:48:11.822Z,7.62
2023-04-02T10:49:12.215Z,7.66
2023-04-02T10:50:12.472Z,7.66
2023-04-02T10:51:11.890Z,7.66
2023-04-02T10:52:12.053Z,7.71
2023-04-02T10:53:12.696Z,7.71
2023-04-02T10:54:11.645Z,7.73
2023-04-02T10:55:12.033Z,7.76
2023-04-02T10:56:11.799Z,7.73
2023-04-02T10:57:12.136Z,7.76
2023-04-02T10:58:13.378Z,7.76
2023-04-02T10:59:11.686Z,7.77
2023-04-02T11:00:12.126Z,7.76
2023-04-02T11:01:12.244Z,7.79
2023-04-02T11:02:12.561Z,7.85
2023-04-02T11:03:12.021Z,7.91
2023-04-02T11:04:14.144Z,7.99
2023-04-02T11:05:12.459Z,8.02
2023-04-02T11:06:12.141Z,8.06
2023-04-02T11:07:14.829Z,8.10
2023-04-02T11:08:12.330Z,8.12
2023-04-02T11:09:11.581Z,8.14
2023-04-02T11:10:11.954Z,8.20
2023-04-02T11:11:12.191Z,8.21
2023-04-02T11:12:11.481Z,8.28
2023-04-02T11:13:11.720Z,8.34
2023-04-02T11:14:11.985Z,8.39
2023-04-02T11:15:12.261Z,8.40
2023-04-02T11:16:11.626Z,8.43
2023-04-02T11:17:11.782Z,8.46
2023-04-02T11:18:12.092Z,8.45
2023-04-02T11:19:11.358Z,8.47
2023-04-02T11:20:11.716Z,8.49
2023-04-02T11:21:11.906Z,8.55
2023-04-02T11:22:12.208Z,8.60
2023-04-02T11:23:12.484Z,8.60
2023-04-02T11:24:11.752Z,8.61
2023-04-02T11:25:12.058Z,8.60
2023-04-02T11:26:12.346Z,8.63
2023-04-02T11:27:11.697Z,8.63
2023-04-02T11:28:11.863Z,8.61
2023-04-02T11:29:12.159Z,8.63
2023-04-02T11:30:11.388Z,8.61
2023-04-02T11:31:11.694Z,8.61
2023-04-02T11:32:11.997Z,8.64
2023-04-02T11:33:12.236Z,8.64
2023-04-02T11:34:11.456Z,8.61
2023-04-02T11:35:11.758Z,8.64
2023-04-02T11:36:12.290Z,8.58
2023-04-02T11:37:11.302Z,8.60
2023-04-02T11:38:11.597Z,8.55
2023-04-02T11:39:17.349Z,8.57
2023-04-02T11:40:11.158Z,8.55
2023-04-02T11:41:11.472Z,8.55
2023-04-02T11:42:11.728Z,8.50
2023-04-02T11:43:10.958Z,8.45
2023-04-02T11:44:11.249Z,8.49
2023-04-02T11:45:11.533Z,8.52
2023-04-02T11:46:11.845Z,8.55
2023-04-02T11:47:11.128Z,8.54
2023-04-02T11:48:11.387Z,8.52
2023-04-02T11:49:11.674Z,8.55
2023-04-02T11:50:10.960Z,8.57
2023-04-02T11:51:11.224Z,8.60
2023-04-02T11:52:12.570Z,8.61
2023-04-02T11:53:11.801Z,8.58
2023-04-02T11:54:11.014Z,8.63
2023-04-02T11:55:11.287Z,8.60
2023-04-02T11:56:11.561Z,8.63
2023-04-02T11:57:10.842Z,8.64
2023-04-02T11:58:11.126Z,8.64
2023-04-02T11:59:11.377Z,8.63
2023-04-02T12:00:11.643Z,8.63
2023-04-02T12:01:10.880Z,8.55
2023-04-02T12:02:11.211Z,8.55
2023-04-02T12:03:11.514Z,8.50
2023-04-02T12:04:11.799Z,8.50
2023-04-02T12:05:11.070Z,8.40
2023-04-02T12:06:11.159Z,8.42
2023-04-02T12:07:12.437Z,8.42
2023-04-02T12:08:10.680Z,8.45
2023-04-02T12:09:10.984Z,8.43
2023-04-02T12:10:11.231Z,8.42
2023-04-02T12:11:11.494Z,8.43
2023-04-02T12:12:10.712Z,8.43
2023-04-02T12:13:12.001Z,8.46
2023-04-02T12:14:11.292Z,8.42
2023-04-02T12:15:11.556Z,8.37
2023-04-02T12:16:11.723Z,8.32
2023-04-02T12:17:11.148Z,8.25
2023-04-02T12:18:11.333Z,8.27
2023-04-02T12:19:10.584Z,8.21
2023-04-02T12:20:10.945Z,8.13
2023-04-02T12:21:11.157Z,8.12
2023-04-02T12:22:11.439Z,8.10
2023-04-02T12:23:10.692Z,8.10
2023-04-02T12:24:12.015Z,8.13
2023-04-02T12:25:11.253Z,8.17
2023-04-02T12:26:10.490Z,8.18
2023-04-02T12:27:10.786Z,8.21
2023-04-02T12:28:11.074Z,8.18
2023-04-02T12:29:11.310Z,8.14
2023-04-02T12:30:10.512Z,8.14
2023-04-02T12:31:10.993Z,8.12
2023-04-02T12:32:11.113Z,8.10
2023-04-02T12:33:10.354Z,8.07
2023-04-02T12:34:10.608Z,8.10
2023-04-02T12:35:10.869Z,8.10
2023-04-02T12:36:11.239Z,8.13
2023-04-02T12:37:10.409Z,8.10
2023-04-02T12:38:10.674Z,8.10
2023-04-02T12:39:11.033Z,8.10
2023-04-02T12:40:11.242Z,8.13
2023-04-02T12:41:10.498Z,8.18
2023-04-02T12:42:10.770Z,8.18
2023-04-02T12:43:11.041Z,8.14
2023-04-02T12:44:10.276Z,8.12
2023-04-02T12:45:10.533Z,8.10
2023-04-02T12:46:11.800Z,8.17
2023-04-02T12:47:11.144Z,8.18
2023-04-02T12:48:10.421Z,8.17
2023-04-02T12:49:10.658Z,8.20
2023-04-02T12:50:10.888Z,8.21
2023-04-02T12:51:10.191Z,8.25
2023-04-02T12:52:10.508Z,8.24
2023-04-02T12:53:10.758Z,8.27
2023-04-02T12:54:14.128Z,8.28
2023-04-02T12:55:11.164Z,8.25
2023-04-02T12:56:11.516Z,8.24
2023-04-02T12:57:10.887Z,8.25
2023-04-02T12:58:10.152Z,8.27
2023-04-02T12:59:10.380Z,8.31
2023-04-02T13:00:10.700Z,8.34
2023-04-02T13:01:11.134Z,8.37
2023-04-02T13:02:10.236Z,8.43
2023-04-02T13:03:10.536Z,8.47
2023-04-02T13:04:10.776Z,8.47
2023-04-02T13:05:09.956Z,8.49
2023-04-02T13:06:11.150Z,8.47
2023-04-02T13:07:10.489Z,8.52
2023-04-02T13:08:10.785Z,8.55
2023-04-02T13:09:10.024Z,8.50
2023-04-02T13:10:10.282Z,8.57
2023-04-02T13:11:13.751Z,8.55
2023-04-02T13:12:09.835Z,8.54
2023-04-02T13:13:10.064Z,8.54
2023-04-02T13:14:10.420Z,8.55
2023-04-02T13:15:10.617Z,8.58
2023-04-02T13:16:09.910Z,8.57
2023-04-02T13:17:10.087Z,8.60
2023-04-02T13:18:10.385Z,8.58
2023-04-02T13:19:10.644Z,8.61